createdAt,value
2024-01-28T00:01:56.398Z,1.99
2024-01-28T00:04:25.361Z,1.96
2024-01-28T00:06:53.657Z,1.91
2024-01-28T00:09:21.957Z,1.88
2024-01-28T00:11:50.336Z,1.87
2024-01-28T00:14:18.565Z,1.86
2024-01-28T00:16:46.871Z,1.85
2024-01-28T00:19:15.379Z,1.83
2024-01-28T00:21:43.798Z,1.77
2024-01-28T00:24:12.183Z,1.72
2024-01-28T00:26:41.436Z,1.66
2024-01-28T00:29:09.686Z,1.63
2024-01-28T00:31:38.018Z,1.60
2024-01-28T00:34:06.448Z,1.57
2024-01-28T00:36:34.800Z,1.56
2024-01-28T00:39:03.977Z,1.53
2024-01-28T00:41:33.736Z,1.55
2024-01-28T00:44:03.124Z,1.57
2024-01-28T00:46:33.449Z,1.55
2024-01-28T00:49:05.385Z,1.58
2024-01-28T00:51:34.119Z,1.56
2024-01-28T00:54:02.545Z,1.54
2024-01-28T00:56:30.976Z,1.50
2024-01-28T00:58:59.267Z,1.47
2024-01-28T01:01:27.519Z,1.46
2024-01-28T01:03:55.700Z,1.45
2024-01-28T01:06:24.122Z,1.43
2024-01-28T01:08:52.457Z,1.44
2024-01-28T01:11:20.818Z,1.49
2024-01-28T01:13:52.803Z,1.48
2024-01-28T01:16:21.150Z,1.47
2024-01-28T01:18:49.406Z,1.47
2024-01-28T01:21:17.823Z,1.48
2024-01-28T01:23:46.177Z,1.47
2024-01-28T01:26:14.595Z,1.46
2024-01-28T01:28:43.122Z,1.45
2024-01-28T01:31:11.342Z,1.44
2024-01-28T01:33:39.699Z,1.41
2024-01-28T01:36:08.309Z,1.40
2024-01-28T01:38:36.618Z,1.42
2024-01-28T01:41:05.228Z,1.44
2024-01-28T01:43:34.053Z,1.47
2024-01-28T01:46:02.391Z,1.47
2024-01-28T01:48:31.119Z,1.45
2024-01-28T01:50:59.621Z,1.44
2024-01-28T01:53:28.918Z,1.43
2024-01-28T01:55:57.665Z,1.42
2024-01-28T01:58:26.379Z,1.40
2024-01-28T02:00:56.750Z,1.35
2024-01-28T02:03:25.326Z,1.30
2024-01-28T02:05:53.865Z,1.27
2024-01-28T02:08:22.476Z,1.25
2024-01-28T02:10:50.808Z,1.26
2024-01-28T02:13:19.015Z,1.31
2024-01-28T02:15:47.600Z,1.36
2024-01-28T02:18:15.984Z,1.38
2024-01-28T02:20:44.476Z,1.39
2024-01-28T02:23:18.011Z,1.41
2024-01-28T02:25:46.234Z,1.39
2024-01-28T02:28:14.671Z,1.36
2024-01-28T02:30:42.916Z,1.32
2024-01-28T02:33:11.477Z,1.30
2024-01-28T02:35:39.838Z,1.30
2024-01-28T02:38:08.136Z,1.30
2024-01-28T02:40:36.353Z,1.34
2024-01-28T02:43:07.269Z,1.32
2024-01-28T02:45:35.568Z,1.31
2024-01-28T02:48:04.213Z,1.31
2024-01-28T02:50:32.852Z,1.35
2024-01-28T02:53:01.089Z,1.34
2024-01-28T02:55:29.390Z,1.31
2024-01-28T02:57:57.661Z,1.31
2024-01-28T03:00:26.018Z,1.22
2024-01-28T03:02:54.356Z,1.20
2024-01-28T03:05:22.757Z,1.15
2024-01-28T03:07:51.096Z,1.10
2024-01-28T03:10:19.316Z,1.05
2024-01-28T03:12:51.333Z,1.01
2024-01-28T03:15:20.692Z,0.99
2024-01-28T03:17:49.031Z,1.00
2024-01-28T03:20:20.888Z,0.96
2024-01-28T03:22:49.147Z,0.93
2024-01-28T03:25:17.876Z,0.91
2024-01-28T03:30:30.541Z,0.88
2024-01-28T03:33:00.111Z,0.88
2024-01-28T03:35:28.410Z,0.89
2024-01-28T03:37:57.030Z,0.90
2024-01-28T03:40:25.353Z,0.88
2024-01-28T03:42:53.769Z,0.85
2024-01-28T03:45:22.018Z,0.86
2024-01-28T03:47:55.374Z,0.85
2024-01-28T03:50:29.372Z,0.85
2024-01-28T03:52:57.688Z,0.88
2024-01-28T03:58:39.092Z,0.95
2024-01-28T04:01:07.690Z,0.94
2024-01-28T04:03:37.921Z,0.95
2024-01-28T04:06:06.297Z,0.96
2024-01-28T04:08:34.979Z,0.97
2024-01-28T04:11:07.241Z,0.95
2024-01-28T04:13:40.050Z,0.95
2024-01-28T04:16:11.157Z,0.93
2024-01-28T04:18:39.704Z,0.95
2024-01-28T04:21:08.176Z,0.99
2024-01-28T04:23:36.480Z,1.03
2024-01-28T04:26:05.078Z,1.10
2024-01-28T04:28:33.299Z,1.12
2024-01-28T04:31:04.086Z,1.16
2024-01-28T04:33:32.412Z,1.16
2024-01-28T04:36:12.427Z,1.13
2024-01-28T04:38:45.261Z,1.11
2024-01-28T04:41:18.378Z,1.07
2024-01-28T04:43:46.695Z,1.05
2024-01-28T04:46:18.275Z,1.02
2024-01-28T04:48:49.064Z,1.07
2024-01-28T04:51:24.211Z,1.11
2024-01-28T04:53:52.519Z,1.11
2024-01-28T04:56:20.764Z,1.13
2024-01-28T04:58:49.263Z,1.15
2024-01-28T05:01:18.453Z,1.10
2024-01-28T05:03:46.868Z,1.07
2024-01-28T05:06:15.321Z,1.06
2024-01-28T05:08:43.549Z,1.10
2024-01-28T05:11:11.772Z,1.15
2024-01-28T05:13:42.781Z,1.20
2024-01-28T05:16:26.881Z,1.18
2024-01-28T05:18:55.371Z,1.20
2024-01-28T05:21:27.048Z,1.16
2024-01-28T05:24:50.451Z,1.17
2024-01-28T05:27:56.104Z,1.16
2024-01-28T05:30:54.518Z,1.19
2024-01-28T05:33:23.105Z,1.19
2024-01-28T05:35:51.471Z,1.24
2024-01-28T05:38:19.779Z,1.25
2024-01-28T05:40:58.153Z,1.23
2024-01-28T05:43:34.286Z,1.15
2024-01-28T05:46:03.968Z,1.15
2024-01-28T05:49:01.618Z,1.15
2024-01-28T05:51:34.312Z,1.20
2024-01-28T05:54:02.827Z,1.25
2024-01-28T05:56:35.151Z,1.29
2024-01-28T05:59:04.645Z,1.29
2024-01-28T06:01:44.846Z,1.29
2024-01-28T06:04:13.331Z,1.26
2024-01-28T06:06:44.101Z,1.27
2024-01-28T06:09:12.811Z,1.29
2024-01-28T06:11:41.697Z,1.32
2024-01-28T06:14:09.930Z,1.34
2024-01-28T06:16:38.546Z,1.38
2024-01-28T06:19:07.170Z,1.42
2024-01-28T06:21:35.537Z,1.50
2024-01-28T06:24:04.186Z,1.50
2024-01-28T06:26:38.506Z,1.50
2024-01-28T06:29:07.785Z,1.51
2024-01-28T06:31:35.989Z,1.52
2024-01-28T06:34:04.521Z,1.55
2024-01-28T06:36:44.908Z,1.57
2024-01-28T06:39:13.343Z,1.61
2024-01-28T06:41:43.530Z,1.66
2024-01-28T06:44:12.142Z,1.69
2024-01-28T06:46:40.969Z,1.73
2024-01-28T06:49:09.255Z,1.79
2024-01-28T06:51:42.962Z,1.80
2024-01-28T06:54:14.099Z,1.84
2024-01-28T06:56:42.387Z,1.84
2024-01-28T06:59:10.606Z,1.84
2024-01-28T07:01:38.866Z,1.84
2024-01-28T07:04:08.446Z,1.87
2024-01-28T07:06:36.847Z,1.91
2024-01-28T07:09:06.380Z,1.95
2024-01-28T07:11:35.310Z,1.99
2024-01-28T07:14:03.633Z,1.97
2024-01-28T07:16:31.950Z,1.92
2024-01-28T07:19:00.270Z,1.93
2024-01-28T07:21:28.913Z,1.91
2024-01-28T07:23:57.112Z,1.91
2024-01-28T07:26:27.147Z,1.93
2024-01-28T07:28:55.359Z,1.99
2024-01-28T07:31:24.003Z,2.06
2024-01-28T07:33:52.310Z,2.12
2024-01-28T07:36:20.653Z,2.14
2024-01-28T07:38:48.947Z,2.13
2024-01-28T07:41:17.165Z,2.12
2024-01-28T07:43:45.386Z,2.13
2024-01-28T07:46:13.607Z,2.10
2024-01-28T07:48:41.972Z,2.12
2024-01-28T07:51:10.459Z,2.16
2024-01-28T07:53:38.673Z,2.16
2024-01-28T07:56:07.475Z,2.21
2024-01-28T07:58:35.808Z,2.25
2024-01-28T08:01:04.885Z,2.26
2024-01-28T08:03:33.223Z,2.27
2024-01-28T08:06:01.508Z,2.24
2024-01-28T08:08:29.795Z,2.20
2024-01-28T08:10:58.832Z,2.17
2024-01-28T08:13:27.148Z,2.18
2024-01-28T08:16:04.493Z,2.16
2024-01-28T08:18:33.031Z,2.19
2024-01-28T08:21:01.354Z,2.15
2024-01-28T08:23:30.453Z,2.10
2024-01-28T08:25:58.674Z,2.04
2024-01-28T08:28:26.896Z,2.06
2024-01-28T08:30:55.171Z,2.04
2024-01-28T08:36:06.112Z,2.09
2024-01-28T08:38:39.353Z,2.11
2024-01-28T08:41:10.678Z,2.12
2024-01-28T08:43:39.401Z,2.15
2024-01-28T08:46:07.819Z,2.23
2024-01-28T08:48:36.267Z,2.23
2024-01-28T08:51:04.758Z,2.23
2024-01-28T08:53:32.979Z,2.28
2024-01-28T08:56:01.500Z,2.30
2024-01-28T08:58:29.922Z,2.34
2024-01-28T09:00:58.460Z,2.37
2024-01-28T09:03:26.947Z,2.39
2024-01-28T09:05:55.608Z,2.41
2024-01-28T09:08:23.913Z,2.47
2024-01-28T09:10:53.128Z,2.54
2024-01-28T09:13:21.359Z,2.64
2024-01-28T09:15:49.602Z,2.70
2024-01-28T09:18:19.036Z,2.75
2024-01-28T09:20:47.314Z,2.77
2024-01-28T09:23:15.536Z,2.75
2024-01-28T09:25:43.769Z,2.80
2024-01-28T09:28:12.078Z,2.80
2024-01-28T09:30:43.449Z,2.85
2024-01-28T09:33:12.166Z,2.85
2024-01-28T09:35:41.240Z,2.81
2024-01-28T09:38:09.677Z,2.78
2024-01-28T09:40:37.897Z,2.76
2024-01-28T09:43:19.771Z,2.82
2024-01-28T09:45:48.313Z,2.85
2024-01-28T09:48:17.251Z,2.89
2024-01-28T09:50:46.339Z,2.96
2024-01-28T09:53:14.775Z,3.01
2024-01-28T09:55:43.446Z,3.06
2024-01-28T09:58:11.788Z,3.13
2024-01-28T10:00:40.513Z,3.17
2024-01-28T10:03:10.434Z,3.20
2024-01-28T10:05:38.763Z,3.22
2024-01-28T10:08:07.420Z,3.18
2024-01-28T10:10:36.750Z,3.16
2024-01-28T10:13:05.575Z,3.21
2024-01-28T10:15:34.107Z,3.24
2024-01-28T10:18:02.469Z,3.30
2024-01-28T10:20:32.433Z,3.33
2024-01-28T10:23:01.718Z,3.37
2024-01-28T10:25:31.647Z,3.40
2024-01-28T10:28:02.522Z,3.44
2024-01-28T10:30:31.047Z,3.52
2024-01-28T10:32:59.474Z,3.57
2024-01-28T10:35:28.238Z,3.55
2024-01-28T10:37:58.016Z,3.62
2024-01-28T10:40:37.086Z,3.63
2024-01-28T10:43:12.478Z,3.69
2024-01-28T10:45:45.538Z,3.72
2024-01-28T10:48:19.432Z,3.75
2024-01-28T10:50:48.468Z,3.78
2024-01-28T10:53:17.183Z,3.83
2024-01-28T10:55:46.210Z,3.88
2024-01-28T10:58:15.447Z,3.91
2024-01-28T11:00:44.586Z,3.97
2024-01-28T11:03:13.670Z,4.05
2024-01-28T11:05:42.635Z,4.05
2024-01-28T11:08:10.938Z,4.10
2024-01-28T11:10:39.151Z,4.13
2024-01-28T11:13:07.754Z,4.21
2024-01-28T11:15:36.325Z,4.31
2024-01-28T11:18:08.377Z,4.40
2024-01-28T11:20:36.740Z,4.50
2024-01-28T11:23:06.342Z,4.58
2024-01-28T11:25:38.465Z,4.59
2024-01-28T11:28:07.644Z,4.67
2024-01-28T11:30:36.912Z,4.75
2024-01-28T11:33:11.474Z,4.71
2024-01-28T11:35:46.290Z,4.81
2024-01-28T11:38:23.155Z,4.82
2024-01-28T11:40:59.986Z,4.89
2024-01-28T11:43:28.365Z,4.95
2024-01-28T11:45:58.797Z,5.02
2024-01-28T11:48:27.338Z,5.12
2024-01-28T11:50:55.825Z,5.21
2024-01-28T11:53:24.057Z,5.27
2024-01-28T11:55:52.365Z,5.32
2024-01-28T11:58:21.840Z,5.32
2024-01-28T12:00:51.799Z,5.31
2024-01-28T12:03:20.589Z,5.23
2024-01-28T12:05:49.158Z,5.19
2024-01-28T12:08:30.035Z,5.24
2024-01-28T12:11:04.254Z,5.39
2024-01-28T12:13:33.495Z,5.80
2024-01-28T12:16:01.844Z,6.17
2024-01-28T12:18:34.436Z,6.64
2024-01-28T12:21:03.171Z,6.97
2024-01-28T12:23:32.412Z,7.28
2024-01-28T12:26:00.921Z,7.51
2024-01-28T12:28:29.238Z,7.51
2024-01-28T12:30:57.777Z,7.60
2024-01-28T12:33:26.388Z,7.57
2024-01-28T12:35:54.705Z,7.49
2024-01-28T12:38:22.917Z,7.30
2024-01-28T12:40:51.137Z,6.99
2024-01-28T12:43:19.458Z,6.80
2024-01-28T12:45:47.925Z,6.53
2024-01-28T12:48:16.329Z,6.35
2024-01-28T12:50:45.414Z,6.22
2024-01-28T12:53:13.742Z,6.11
2024-01-28T12:55:42.056Z,5.94
2024-01-28T12:58:10.380Z,5.83
2024-01-28T13:00:38.749Z,5.76
2024-01-28T13:03:07.538Z,5.69
2024-01-28T13:05:36.053Z,5.58
2024-01-28T13:08:04.844Z,5.56
2024-01-28T13:10:33.095Z,5.49
2024-01-28T13:13:01.746Z,5.35
2024-01-28T13:15:30.051Z,5.26
2024-01-28T13:17:58.304Z,5.24
2024-01-28T13:20:26.807Z,5.21
2024-01-28T13:22:55.293Z,5.17
2024-01-28T13:25:24.887Z,5.12
2024-01-28T13:27:53.422Z,5.11
2024-01-28T13:30:21.794Z,5.07
2024-01-28T13:32:50.738Z,5.01
2024-01-28T13:35:19.413Z,4.97
2024-01-28T13:37:47.827Z,4.96
2024-01-28T13:40:16.059Z,4.93
2024-01-28T13:42:44.399Z,4.91
2024-01-28T13:45:13.550Z,4.93
2024-01-28T13:47:43.124Z,4.89
2024-01-28T13:50:11.632Z,4.90
2024-01-28T13:52:39.856Z,4.86
2024-01-28T13:55:08.975Z,4.83
2024-01-28T13:57:37.678Z,4.83
2024-01-28T14:00:11.574Z,4.77
2024-01-28T14:02:43.329Z,4.70
2024-01-28T14:05:14.245Z,4.66
2024-01-28T14:07:42.854Z,4.64
2024-01-28T14:10:11.795Z,4.59
2024-01-28T14:12:40.610Z,4.56
2024-01-28T14:15:10.515Z,4.53
2024-01-28T14:17:39.466Z,4.50
2024-01-28T14:20:09.375Z,4.46
2024-01-28T14:22:37.769Z,4.38
2024-01-28T14:25:06.297Z,4.34
2024-01-28T14:27:34.972Z,4.27
2024-01-28T14:30:04.191Z,4.24
2024-01-28T14:32:33.752Z,4.21
2024-01-28T14:35:02.318Z,4.12
2024-01-28T14:37:30.873Z,4.10
2024-01-28T14:39:59.653Z,4.08
2024-01-28T14:42:48.693Z,4.07
2024-01-28T14:45:26.131Z,4.02
2024-01-28T14:50:46.906Z,3.91
2024-01-28T14:59:40.462Z,3.83
2024-01-28T15:02:11.301Z,3.80
2024-01-28T15:04:39.530Z,3.79
2024-01-28T15:07:08.533Z,3.71
2024-01-28T15:09:37.024Z,3.68
2024-01-28T15:12:06.037Z,3.63
2024-01-28T15:14:35.198Z,3.58
2024-01-28T15:17:06.552Z,3.58
2024-01-28T15:19:36.326Z,3.61
2024-01-28T15:22:05.188Z,3.60
2024-01-28T15:24:33.426Z,3.60
2024-01-28T15:27:01.623Z,3.61
2024-01-28T15:29:29.945Z,3.59
2024-01-28T15:31:58.840Z,3.55
2024-01-28T15:34:28.130Z,3.51
2024-01-28T15:36:56.729Z,3.48
2024-01-28T15:39:24.970Z,3.50
2024-01-28T15:41:53.350Z,3.52
2024-01-28T15:44:21.671Z,3.51
2024-01-28T15:46:50.102Z,3.55
2024-01-28T15:49:18.704Z,3.54
2024-01-28T15:51:47.083Z,3.54
2024-01-28T15:54:16.998Z,3.51
2024-01-28T15:56:45.488Z,3.53
2024-01-28T15:59:14.110Z,3.54
2024-01-28T16:01:42.461Z,3.55
2024-01-28T16:04:10.963Z,3.57
2024-01-28T16:06:39.425Z,3.53
2024-01-28T16:09:09.914Z,3.51
2024-01-28T16:11:38.235Z,3.49
2024-01-28T16:14:06.746Z,3.45
2024-01-28T16:16:35.294Z,3.44
2024-01-28T16:19:04.050Z,3.44
2024-01-28T16:21:32.462Z,3.41
2024-01-28T16:24:02.311Z,3.36
2024-01-28T16:26:30.555Z,3.25
2024-01-28T16:28:58.986Z,3.20
2024-01-28T16:31:27.188Z,3.10
2024-01-28T16:33:55.696Z,3.05
2024-01-28T16:36:24.156Z,3.04
2024-01-28T16:38:52.467Z,3.04
2024-01-28T16:41:20.876Z,3.04
2024-01-28T16:43:49.198Z,3.05
2024-01-28T16:46:17.519Z,3.05
2024-01-28T16:48:52.123Z,3.03
2024-01-28T16:51:26.614Z,2.98
2024-01-28T16:54:17.746Z,2.96
2024-01-28T16:56:46.510Z,2.94
2024-01-28T17:02:27.124Z,2.96
2024-01-28T17:04:58.450Z,2.99
2024-01-28T17:07:28.385Z,2.99
2024-01-28T17:09:56.632Z,2.99
2024-01-28T17:12:24.862Z,2.97
2024-01-28T17:14:53.153Z,2.95
2024-01-28T17:17:23.367Z,2.90
2024-01-28T17:19:51.903Z,2.87
2024-01-28T17:22:20.402Z,2.89
2024-01-28T17:24:48.663Z,2.93
2024-01-28T17:27:17.091Z,2.96
2024-01-28T17:32:27.445Z,2.96
2024-01-28T17:34:56.614Z,2.94
2024-01-28T17:37:26.247Z,2.94
2024-01-28T17:39:54.986Z,2.92
2024-01-28T17:42:24.493Z,2.93
2024-01-28T17:44:53.452Z,2.95
2024-01-28T17:47:21.676Z,2.96
2024-01-28T17:49:50.728Z,2.95
2024-01-28T17:52:19.215Z,2.96
2024-01-28T17:54:47.780Z,2.96
2024-01-28T17:57:16.162Z,2.94
2024-01-28T17:59:44.575Z,2.89
2024-01-28T18:02:13.707Z,2.85
2024-01-28T18:04:42.099Z,2.80
2024-01-28T18:07:10.686Z,2.79
2024-01-28T18:09:40.249Z,2.79
2024-01-28T18:12:08.790Z,2.82
2024-01-28T18:14:38.165Z,2.83
2024-01-28T18:17:06.530Z,2.85
2024-01-28T18:19:35.333Z,2.86
2024-01-28T18:22:03.774Z,2.86
2024-01-28T18:24:32.090Z,2.84
2024-01-28T18:27:00.415Z,2.85
2024-01-28T18:29:28.739Z,2.81
2024-01-28T18:31:57.478Z,2.79
2024-01-28T18:34:26.403Z,2.79
2024-01-28T18:36:54.643Z,2.76
2024-01-28T18:39:23.079Z,2.77
2024-01-28T18:41:51.346Z,2.72
2024-01-28T18:44:22.464Z,2.69
2024-01-28T18:46:52.398Z,2.70
2024-01-28T18:49:23.011Z,2.69
2024-01-28T18:51:51.285Z,2.72
2024-01-28T18:54:19.575Z,2.72
2024-01-28T18:56:48.390Z,2.72
2024-01-28T18:59:16.708Z,2.69
2024-01-28T19:01:44.982Z,2.65
2024-01-28T19:04:13.251Z,2.65
2024-01-28T19:06:41.759Z,2.57
2024-01-28T19:09:10.199Z,2.57
2024-01-28T19:11:38.913Z,2.56
2024-01-28T19:14:11.361Z,2.52
2024-01-28T19:16:40.176Z,2.48
2024-01-28T19:19:08.925Z,2.43
2024-01-28T19:21:38.613Z,2.41
2024-01-28T19:24:07.134Z,2.39
2024-01-28T19:26:35.360Z,2.39
2024-01-28T19:29:04.407Z,2.38
2024-01-28T19:31:32.875Z,2.40
2024-01-28T19:34:01.214Z,2.40
2024-01-28T19:36:34.302Z,2.41
2024-01-28T19:39:04.525Z,2.42
2024-01-28T19:41:32.914Z,2.43
2024-01-28T19:44:01.933Z,2.42
2024-01-28T19:46:30.859Z,2.42
2024-01-28T19:48:59.205Z,2.43
2024-01-28T19:51:28.340Z,2.45
2024-01-28T19:53:57.032Z,2.46
2024-01-28T19:56:25.245Z,2.47
2024-01-28T19:58:55.477Z,2.48
2024-01-28T20:01:24.006Z,2.46
2024-01-28T20:03:52.702Z,2.45
2024-01-28T20:06:32.167Z,2.50
2024-01-28T20:09:06.096Z,2.52
2024-01-28T20:11:35.149Z,2.54
2024-01-28T20:14:04.467Z,2.54
2024-01-28T20:16:32.890Z,2.52
2024-01-28T20:19:01.172Z,2.53
2024-01-28T20:21:31.585Z,2.55
2024-01-28T20:24:00.154Z,2.53
2024-01-28T20:26:28.776Z,2.56
2024-01-28T20:28:56.994Z,2.57
2024-01-28T20:31:27.141Z,2.59
2024-01-28T20:33:55.589Z,2.55
2024-01-28T20:36:24.075Z,2.53
2024-01-28T20:38:53.400Z,2.55
2024-01-28T20:41:22.030Z,2.54
2024-01-28T20:43:50.338Z,2.54
2024-01-28T20:46:20.361Z,2.52
2024-01-28T20:48:53.301Z,2.52
2024-01-28T20:51:23.608Z,2.51
2024-01-28T20:53:51.958Z,2.54
2024-01-28T20:56:26.682Z,2.50
2024-01-28T20:58:54.898Z,2.50
2024-01-28T21:01:23.201Z,2.47
2024-01-28T21:03:51.834Z,2.45
2024-01-28T21:06:20.547Z,2.44
2024-01-28T21:08:48.919Z,2.44
2024-01-28T21:11:17.419Z,2.44
2024-01-28T21:13:45.871Z,2.44
2024-01-28T21:16:14.664Z,2.40
2024-01-28T21:18:42.938Z,2.38
2024-01-28T21:21:11.292Z,2.40
2024-01-28T21:23:39.516Z,2.42
2024-01-28T21:26:07.837Z,2.43
2024-01-28T21:28:36.048Z,2.41
2024-01-28T21:31:04.887Z,2.40
2024-01-28T21:33:33.405Z,2.39
2024-01-28T21:36:01.927Z,2.37
2024-01-28T21:38:30.147Z,2.37
2024-01-28T21:40:58.455Z,2.37
2024-01-28T21:43:26.690Z,2.39
2024-01-28T21:45:55.057Z,2.37
2024-01-28T21:48:23.457Z,2.38
2024-01-28T21:50:51.637Z,2.39
2024-01-28T21:53:19.975Z,2.35
2024-01-28T21:55:48.514Z,2.35
2024-01-28T21:58:16.698Z,2.37
2024-01-28T22:00:45.001Z,2.36
2024-01-28T22:03:13.457Z,2.37
2024-01-28T22:05:42.260Z,2.38
2024-01-28T22:08:10.750Z,2.38
2024-01-28T22:10:39.097Z,2.39
2024-01-28T22:13:07.662Z,2.37
2024-01-28T22:15:35.966Z,2.39
2024-01-28T22:18:05.029Z,2.37
2024-01-28T22:20:33.191Z,2.37
2024-01-28T22:23:03.025Z,2.33
2024-01-28T22:25:31.236Z,2.37
2024-01-28T22:27:59.550Z,2.39
2024-01-28T22:30:28.629Z,2.37
2024-01-28T22:32:57.201Z,2.32
2024-01-28T22:35:26.674Z,2.33
2024-01-28T22:37:56.444Z,2.37
2024-01-28T22:40:26.176Z,2.36
2024-01-28T22:42:54.453Z,2.35
2024-01-28T22:45:22.835Z,2.33
2024-01-28T22:47:51.477Z,2.31
2024-01-28T22:50:20.458Z,2.26
2024-01-28T22:52:48.779Z,2.29
2024-01-28T22:55:17.399Z,2.27
2024-01-28T22:57:45.812Z,2.29
2024-01-28T23:00:27.918Z,2.30
2024-01-28T23:02:56.411Z,2.27
2024-01-28T23:05:24.857Z,2.23
2024-01-28T23:07:53.661Z,2.21
2024-01-28T23:10:23.076Z,2.22
2024-01-28T23:12:53.001Z,2.24
2024-01-28T23:15:22.596Z,2.25
2024-01-28T23:17:52.255Z,2.22
2024-01-28T23:20:20.673Z,2.19
2024-01-28T23:22:49.197Z,2.17
2024-01-28T23:25:18.229Z,2.15
2024-01-28T23:27:46.650Z,2.15
2024-01-28T23:30:15.578Z,2.15
2024-01-28T23:32:44.619Z,2.15
2024-01-28T23:35:13.309Z,2.10
2024-01-28T23:37:41.535Z,2.11
2024-01-28T23:40:12.544Z,2.08
2024-01-28T23:42:41.159Z,2.08
2024-01-28T23:45:12.529Z,2.10
2024-01-28T23:47:41.012Z,2.12
2024-01-28T23:50:10.482Z,2.11
2024-01-28T23:52:40.195Z,2.11
2024-01-28T23:55:08.552Z,2.11
2024-01-28T23:57:36.883Z,2.12
